sensor_id;sensor_type;location;lat;lon;timestamp;pressure;altitude;pressure_sealevel;temperature;humidity
12358;BME280;6243;51.244;6.774;2023-05-20T00:00:35;151792.69;;;17.16;59.38
12358;BME280;6243;51.244;6.774;2023-05-20T00:03:00;151779.91;;;17.11;59.39
12358;BME280;6243;51.244;6.774;2023-05-20T00:05:26;151786.31;;;17.13;59.41
12358;BME280;6243;51.244;6.774;2023-05-20T00:07:52;151776.03;;;17.09;59.37
12358;BME280;6243;51.244;6.774;2023-05-20T00:10:18;151755.63;;;17.01;59.44
12358;BME280;6243;51.244;6.774;2023-05-20T00:12:44;151756.91;;;17.01;59.63
12358;BME280;6243;51.244;6.774;2023-05-20T00:15:10;151765.84;;;17.05;59.50
12358;BME280;6243;51.244;6.774;2023-05-20T00:17:35;151758.19;;;17.02;59.74
12358;BME280;6243;51.244;6.774;2023-05-20T00:20:01;151714.75;;;16.85;59.89
12358;BME280;6243;51.244;6.774;2023-05-20T00:22:26;151712.16;;;16.84;59.98
12358;BME280;6243;51.244;6.774;2023-05-20T00:24:52;151687.94;;;16.74;60.36
12358;BME280;6243;51.244;6.774;2023-05-20T00:27:19;151684.06;;;16.73;60.85
12358;BME280;6243;51.244;6.774;2023-05-20T00:29:44;151611.25;;;16.44;61.53
12358;BME280;6243;51.244;6.774;2023-05-20T00:32:09;151583.16;;;16.33;61.99
12358;BME280;6243;51.244;6.774;2023-05-20T00:34:35;151584.44;;;16.33;62.35
12358;BME280;6243;51.244;6.774;2023-05-20T00:37:00;151574.19;;;16.29;62.40
12358;BME280;6243;51.244;6.774;2023-05-20T00:39:26;151555.06;;;16.22;62.83
12358;BME280;6243;51.244;6.774;2023-05-20T00:41:51;151507.81;;;16.03;63.69
12358;BME280;6243;51.244;6.774;2023-05-20T00:44:18;151511.63;;;16.05;63.60
12358;BME280;6243;51.244;6.774;2023-05-20T00:46:45;151512.94;;;16.05;63.61
12358;BME280;6243;51.244;6.774;2023-05-20T00:49:11;151523.13;;;16.09;63.45
12358;BME280;6243;51.244;6.774;2023-05-20T00:51:37;151511.63;;;16.05;63.76
12358;BME280;6243;51.244;6.774;2023-05-20T00:54:03;151512.94;;;16.05;63.96
12358;BME280;6243;51.244;6.774;2023-05-20T00:56:28;151506.53;;;16.03;64.03
12358;BME280;6243;51.244;6.774;2023-05-20T00:58:54;151481.00;;;15.93;64.86
12358;BME280;6243;51.244;6.774;2023-05-20T01:01:21;151466.97;;;15.87;64.75
12358;BME280;6243;51.244;6.774;2023-05-20T01:03:47;151452.91;;;15.82;65.40
12358;BME280;6243;51.244;6.774;2023-05-20T01:06:12;151428.66;;;15.72;65.95
12358;BME280;6243;51.244;6.774;2023-05-20T01:08:38;151410.84;;;15.65;65.89
12358;BME280;6243;51.244;6.774;2023-05-20T01:11:07;151404.44;;;15.63;66.15
12358;BME280;6243;51.244;6.774;2023-05-20T01:13:36;151415.94;;;15.67;66.14
12358;BME280;6243;51.244;6.774;2023-05-20T01:16:04;151408.25;;;15.64;66.41
12358;BME280;6243;51.244;6.774;2023-05-20T01:18:33;151421.03;;;15.69;66.26
12358;BME280;6243;51.244;6.774;2023-05-20T01:21:01;151422.31;;;15.70;66.17
12358;BME280;6243;51.244;6.774;2023-05-20T01:23:32;151415.94;;;15.67;66.29
12358;BME280;6243;51.244;6.774;2023-05-20T01:25:58;151406.97;;;15.63;66.80
12358;BME280;6243;51.244;6.774;2023-05-20T01:28:23;151412.06;;;15.66;66.55
12358;BME280;6243;51.244;6.774;2023-05-20T01:30:52;151417.16;;;15.68;66.26
12358;BME280;6243;51.244;6.774;2023-05-20T01:33:20;151431.22;;;15.73;66.36
12358;BME280;6243;51.244;6.774;2023-05-20T01:35:48;151423.56;;;15.70;66.58
12358;BME280;6243;51.244;6.774;2023-05-20T01:38:14;151427.41;;;15.72;66.40
12358;BME280;6243;51.244;6.774;2023-05-20T01:40:45;151410.84;;;15.65;66.56
12358;BME280;6243;51.244;6.774;2023-05-20T01:43:12;151357.22;;;15.44;67.30
12358;BME280;6243;51.244;6.774;2023-05-20T01:45:40;151341.81;;;15.38;67.79
12358;BME280;6243;51.244;6.774;2023-05-20T01:48:05;151316.34;;;15.28;68.28
12358;BME280;6243;51.244;6.774;2023-05-20T01:50:31;151311.25;;;15.26;69.26
12358;BME280;6243;51.244;6.774;2023-05-20T01:52:56;151302.28;;;15.22;69.31
12358;BME280;6243;51.244;6.774;2023-05-20T01:55:22;151316.34;;;15.28;69.45
12358;BME280;6243;51.244;6.774;2023-05-20T01:57:49;151271.69;;;15.10;70.14
12358;BME280;6243;51.244;6.774;2023-05-20T02:00:15;151264.03;;;15.07;70.44
12358;BME280;6243;51.244;6.774;2023-05-20T02:02:40;151287.00;;;15.16;70.46
12358;BME280;6243;51.244;6.774;2023-05-20T02:05:06;151303.56;;;15.23;70.39
12358;BME280;6243;51.244;6.774;2023-05-20T02:07:32;151271.69;;;15.10;70.98
12358;BME280;6243;51.244;6.774;2023-05-20T02:09:57;151235.97;;;14.96;72.39
12358;BME280;6243;51.244;6.774;2023-05-20T02:12:23;151244.88;;;15.00;72.42
12358;BME280;6243;51.244;6.774;2023-05-20T02:14:50;151256.34;;;15.04;72.33
12358;BME280;6243;51.244;6.774;2023-05-20T02:17:15;151262.75;;;15.07;72.89
12358;BME280;6243;51.244;6.774;2023-05-20T02:19:41;151265.31;;;15.08;72.55
12358;BME280;6243;51.244;6.774;2023-05-20T02:22:06;151249.97;;;15.02;72.86
12358;BME280;6243;51.244;6.774;2023-05-20T02:24:32;151260.22;;;15.06;72.79
12358;BME280;6243;51.244;6.774;2023-05-20T02:26:58;151267.84;;;15.09;73.12
12358;BME280;6243;51.244;6.774;2023-05-20T02:29:23;151275.50;;;15.12;72.50
12358;BME280;6243;51.244;6.774;2023-05-20T02:31:50;151295.91;;;15.20;72.61
12358;BME280;6243;51.244;6.774;2023-05-20T02:34:16;151275.50;;;15.12;72.86
12358;BME280;6243;51.244;6.774;2023-05-20T02:36:42;151225.78;;;14.92;73.85
12358;BME280;6243;51.244;6.774;2023-05-20T02:39:07;151155.63;;;14.64;75.63
12358;BME280;6243;51.244;6.774;2023-05-20T02:41:33;151144.16;;;14.60;76.72
12358;BME280;6243;51.244;6.774;2023-05-20T02:43:58;151110.97;;;14.47;78.34
12358;BME280;6243;51.244;6.774;2023-05-20T02:46:24;151104.63;;;14.44;78.43
12358;BME280;6243;51.244;6.774;2023-05-20T02:48:51;151105.88;;;14.45;78.76
12358;BME280;6243;51.244;6.774;2023-05-20T02:51:16;151112.25;;;14.47;79.21
12358;BME280;6243;51.244;6.774;2023-05-20T02:53:41;151145.38;;;14.60;78.52
12358;BME280;6243;51.244;6.774;2023-05-20T02:56:08;151145.38;;;14.60;79.11
12358;BME280;6243;51.244;6.774;2023-05-20T02:58:33;151119.91;;;14.50;79.99
12358;BME280;6243;51.244;6.774;2023-05-20T03:00:59;151119.91;;;14.50;80.98
12358;BME280;6243;51.244;6.774;2023-05-20T03:03:25;151153.06;;;14.63;80.46
12358;BME280;6243;51.244;6.774;2023-05-20T03:05:51;151150.53;;;14.62;80.08
12358;BME280;6243;51.244;6.774;2023-05-20T03:08:21;151131.38;;;14.55;81.03
12358;BME280;6243;51.244;6.774;2023-05-20T03:10:46;151145.38;;;14.60;80.54
12358;BME280;6243;51.244;6.774;2023-05-20T03:13:12;151135.19;;;14.56;81.04
12358;BME280;6243;51.244;6.774;2023-05-20T03:15:38;151107.16;;;14.45;82.16
12358;BME280;6243;51.244;6.774;2023-05-20T03:18:04;151122.44;;;14.51;81.81
12358;BME280;6243;51.244;6.774;2023-05-20T03:20:29;151142.88;;;14.59;81.63
12358;BME280;6243;51.244;6.774;2023-05-20T03:22:57;151130.09;;;14.54;82.32
12358;BME280;6243;51.244;6.774;2023-05-20T03:25:23;151150.53;;;14.62;81.84
12358;BME280;6243;51.244;6.774;2023-05-20T03:27:49;151151.78;;;14.63;81.63
12358;BME280;6243;51.244;6.774;2023-05-20T03:30:14;151132.69;;;14.55;82.30
12358;BME280;6243;51.244;6.774;2023-05-20T03:32:41;151155.63;;;14.64;81.83
12358;BME280;6243;51.244;6.774;2023-05-20T03:35:07;151172.19;;;14.71;81.90
12358;BME280;6243;51.244;6.774;2023-05-20T03:37:32;151131.38;;;14.55;83.00
12358;BME280;6243;51.244;6.774;2023-05-20T03:39:59;151142.88;;;14.59;82.19
12358;BME280;6243;51.244;6.774;2023-05-20T03:42:25;151147.97;;;14.61;82.57
12358;BME280;6243;51.244;6.774;2023-05-20T03:44:50;151142.88;;;14.59;82.89
12358;BME280;6243;51.244;6.774;2023-05-20T03:47:16;151150.53;;;14.62;82.75
12358;BME280;6243;51.244;6.774;2023-05-20T03:49:41;151141.59;;;14.59;83.19
12358;BME280;6243;51.244;6.774;2023-05-20T03:52:07;151089.31;;;14.38;85.18
12358;BME280;6243;51.244;6.774;2023-05-20T03:54:32;151082.91;;;14.36;86.07
12358;BME280;6243;51.244;6.774;2023-05-20T03:56:59;151086.78;;;14.37;86.33
12358;BME280;6243;51.244;6.774;2023-05-20T03:59:25;151093.16;;;14.40;86.14
12358;BME280;6243;51.244;6.774;2023-05-20T04:01:50;151059.94;;;14.27;87.83
12358;BME280;6243;51.244;6.774;2023-05-20T04:04:16;151061.22;;;14.27;87.27
12358;BME280;6243;51.244;6.774;2023-05-20T04:06:41;151040.84;;;14.19;88.90
12358;BME280;6243;51.244;6.774;2023-05-20T04:09:07;151059.94;;;14.27;88.53
12358;BME280;6243;51.244;6.774;2023-05-20T04:11:32;151054.84;;;14.24;89.93
12358;BME280;6243;51.244;6.774;2023-05-20T04:13:59;151081.63;;;14.35;89.41
12358;BME280;6243;51.244;6.774;2023-05-20T04:16:24;151074.03;;;14.32;90.41
12358;BME280;6243;51.244;6.774;2023-05-20T04:18:50;151093.16;;;14.40;89.18
12358;BME280;6243;51.244;6.774;2023-05-20T04:21:16;151114.81;;;14.48;89.05
12358;BME280;6243;51.244;6.774;2023-05-20T04:23:41;151140.28;;;14.58;88.85
12358;BME280;6243;51.244;6.774;2023-05-20T04:26:07;151142.88;;;14.59;88.54
12358;BME280;6243;51.244;6.774;2023-05-20T04:28:33;151147.97;;;14.61;87.57
12358;BME280;6243;51.244;6.774;2023-05-20T04:31:00;151137.78;;;14.57;88.95
12358;BME280;6243;51.244;6.774;2023-05-20T04:33:25;151096.97;;;14.41;89.80
12358;BME280;6243;51.244;6.774;2023-05-20T04:35:51;151132.69;;;14.55;89.41
12358;BME280;6243;51.244;6.774;2023-05-20T04:38:16;151140.28;;;14.58;88.99
12358;BME280;6243;51.244;6.774;2023-05-20T04:40:42;151174.72;;;14.72;87.84
12358;BME280;6243;51.244;6.774;2023-05-20T04:43:07;151184.97;;;14.76;88.36
12358;BME280;6243;51.244;6.774;2023-05-20T04:45:33;151177.28;;;14.73;88.16
12358;BME280;6243;51.244;6.774;2023-05-20T04:48:00;151213.00;;;14.87;88.56
12358;BME280;6243;51.244;6.774;2023-05-20T04:50:25;151227.03;;;14.92;86.89
12358;BME280;6243;51.244;6.774;2023-05-20T04:52:51;151267.84;;;15.09;86.67
12358;BME280;6243;51.244;6.774;2023-05-20T04:55:16;151265.31;;;15.08;86.30
12358;BME280;6243;51.244;6.774;2023-05-20T04:57:42;151293.38;;;15.19;85.38
12358;BME280;6243;51.244;6.774;2023-05-20T05:00:08;151308.66;;;15.25;85.32
12358;BME280;6243;51.244;6.774;2023-05-20T05:02:34;151352.06;;;15.42;83.79
12358;BME280;6243;51.244;6.774;2023-05-20T05:05:01;151321.44;;;15.30;85.19
12358;BME280;6243;51.244;6.774;2023-05-20T05:07:27;151355.88;;;15.43;84.15
12358;BME280;6243;51.244;6.774;2023-05-20T05:09:52;151401.88;;;15.61;83.33
12358;BME280;6243;51.244;6.774;2023-05-20T05:12:18;151417.16;;;15.68;82.57
12358;BME280;6243;51.244;6.774;2023-05-20T05:14:43;151398.06;;;15.60;82.15
12358;BME280;6243;51.244;6.774;2023-05-20T05:17:09;151436.31;;;15.75;80.99
12358;BME280;6243;51.244;6.774;2023-05-20T05:19:34;151452.91;;;15.82;80.37
12358;BME280;6243;51.244;6.774;2023-05-20T05:22:01;151452.91;;;15.82;79.35
12358;BME280;6243;51.244;6.774;2023-05-20T05:24:26;151487.38;;;15.95;78.94
12358;BME280;6243;51.244;6.774;2023-05-20T05:26:52;151472.06;;;15.89;78.30
12358;BME280;6243;51.244;6.774;2023-05-20T05:29:18;151507.81;;;16.03;77.18
12358;BME280;6243;51.244;6.774;2023-05-20T05:31:43;151482.28;;;15.93;76.42
12358;BME280;6243;51.244;6.774;2023-05-20T05:34:09;151547.41;;;16.19;76.54
12358;BME280;6243;51.244;6.774;2023-05-20T05:36:34;151552.50;;;16.21;75.45
12358;BME280;6243;51.244;6.774;2023-05-20T05:39:01;151574.19;;;16.29;74.88
12358;BME280;6243;51.244;6.774;2023-05-20T05:41:26;151597.16;;;16.39;74.68
12358;BME280;6243;51.244;6.774;2023-05-20T05:43:53;151645.78;;;16.58;73.85
12358;BME280;6243;51.244;6.774;2023-05-20T05:46:18;151666.19;;;16.66;72.92
12358;BME280;6243;51.244;6.774;2023-05-20T05:48:44;151717.31;;;16.86;72.06
12358;BME280;6243;51.244;6.774;2023-05-20T05:51:09;151735.16;;;16.93;72.49
12358;BME280;6243;51.244;6.774;2023-05-20T05:53:35;151773.50;;;17.08;71.70
12358;BME280;6243;51.244;6.774;2023-05-20T05:56:01;151793.94;;;17.16;70.99
12358;BME280;6243;51.244;6.774;2023-05-20T05:58:27;151765.84;;;17.05;71.84
12358;BME280;6243;51.244;6.774;2023-05-20T06:00:52;151832.28;;;17.31;70.87
12358;BME280;6243;51.244;6.774;2023-05-20T06:03:18;151866.81;;;17.45;69.60
12358;BME280;6243;51.244;6.774;2023-05-20T06:05:44;151856.59;;;17.41;69.33
12358;BME280;6243;51.244;6.774;2023-05-20T06:08:09;151846.31;;;17.37;69.57
12358;BME280;6243;51.244;6.774;2023-05-20T06:10:35;151847.63;;;17.37;69.69
12358;BME280;6243;51.244;6.774;2023-05-20T06:13:02;151900.06;;;17.58;69.11
12358;BME280;6243;51.244;6.774;2023-05-20T06:15:28;151929.47;;;17.69;68.66
12358;BME280;6243;51.244;6.774;2023-05-20T06:17:53;152016.41;;;18.04;66.65
12358;BME280;6243;51.244;6.774;2023-05-20T06:20:19;152054.75;;;18.19;66.64
12358;BME280;6243;51.244;6.774;2023-05-20T06:22:44;152039.41;;;18.13;66.91
12358;BME280;6243;51.244;6.774;2023-05-20T06:25:10;151916.69;;;17.64;68.07
12358;BME280;6243;51.244;6.774;2023-05-20T06:27:35;151992.09;;;17.94;68.34
12358;BME280;6243;51.244;6.774;2023-05-20T06:30:03;151957.59;;;17.81;68.12
12358;BME280;6243;51.244;6.774;2023-05-20T06:32:29;151983.19;;;17.91;68.06
12358;BME280;6243;51.244;6.774;2023-05-20T06:34:54;151989.56;;;17.93;67.64
12358;BME280;6243;51.244;6.774;2023-05-20T06:37:20;152016.41;;;18.04;67.88
12358;BME280;6243;51.244;6.774;2023-05-20T06:39:45;152001.06;;;17.98;68.20
12358;BME280;6243;51.244;6.774;2023-05-20T06:42:11;151965.28;;;17.84;68.22
12358;BME280;6243;51.244;6.774;2023-05-20T06:44:36;151990.81;;;17.94;68.13
12358;BME280;6243;51.244;6.774;2023-05-20T06:47:03;151969.09;;;17.85;67.90
12358;BME280;6243;51.244;6.774;2023-05-20T06:49:29;151932.03;;;17.70;68.12
12358;BME280;6243;51.244;6.774;2023-05-20T06:51:54;151943.56;;;17.75;68.25
12358;BME280;6243;51.244;6.774;2023-05-20T06:54:20;151974.19;;;17.87;68.26
12358;BME280;6243;51.244;6.774;2023-05-20T06:56:45;151971.66;;;17.86;67.34
12358;BME280;6243;51.244;6.774;2023-05-20T06:59:11;151974.19;;;17.87;68.76
12358;BME280;6243;51.244;6.774;2023-05-20T07:01:36;152030.50;;;18.09;68.44
12358;BME280;6243;51.244;6.774;2023-05-20T07:04:03;152080.34;;;18.29;68.09
12358;BME280;6243;51.244;6.774;2023-05-20T07:06:29;152155.84;;;18.59;67.29
12358;BME280;6243;51.244;6.774;2023-05-20T07:08:54;152227.50;;;18.87;66.76
12358;BME280;6243;51.244;6.774;2023-05-20T07:11:20;152292.72;;;19.12;65.64
12358;BME280;6243;51.244;6.774;2023-05-20T07:13:45;152320.88;;;19.24;63.89
12358;BME280;6243;51.244;6.774;2023-05-20T07:16:11;152340.09;;;19.31;64.31
12358;BME280;6243;51.244;6.774;2023-05-20T07:18:36;152320.88;;;19.24;63.28
12358;BME280;6243;51.244;6.774;2023-05-20T07:21:03;152318.34;;;19.23;64.08
12358;BME280;6243;51.244;6.774;2023-05-20T07:23:28;152361.88;;;19.40;63.64
12358;BME280;6243;51.244;6.774;2023-05-20T07:25:54;152207.00;;;18.79;63.92
12358;BME280;6243;51.244;6.774;2023-05-20T07:28:20;152172.47;;;18.65;64.43
12358;BME280;6243;51.244;6.774;2023-05-20T07:30:45;152201.91;;;18.77;64.32
12358;BME280;6243;51.244;6.774;2023-05-20T07:33:11;152226.22;;;18.86;65.95
12358;BME280;6243;51.244;6.774;2023-05-20T07:35:36;152118.69;;;18.44;65.19
12358;BME280;6243;51.244;6.774;2023-05-20T07:38:03;152026.63;;;18.08;66.70
12358;BME280;6243;51.244;6.774;2023-05-20T07:40:29;151926.91;;;17.68;67.51
12358;BME280;6243;51.244;6.774;2023-05-20T07:42:54;151998.50;;;17.97;68.56
12358;BME280;6243;51.244;6.774;2023-05-20T07:45:20;151984.41;;;17.91;67.85
12358;BME280;6243;51.244;6.774;2023-05-20T07:47:45;152010.00;;;18.01;68.65
12358;BME280;6243;51.244;6.774;2023-05-20T07:50:11;151981.88;;;17.90;69.01
12358;BME280;6243;51.244;6.774;2023-05-20T07:52:36;152067.53;;;18.24;68.36
12358;BME280;6243;51.244;6.774;2023-05-20T07:55:04;152075.22;;;18.27;67.46
12358;BME280;6243;51.244;6.774;2023-05-20T07:57:30;152052.22;;;18.18;67.11
12358;BME280;6243;51.244;6.774;2023-05-20T07:59:55;151953.78;;;17.79;67.78
12358;BME280;6243;51.244;6.774;2023-05-20T08:02:21;151983.19;;;17.91;68.81
12358;BME280;6243;51.244;6.774;2023-05-20T08:04:46;151969.09;;;17.85;69.51
12358;BME280;6243;51.244;6.774;2023-05-20T08:07:12;151944.78;;;17.76;68.61
12358;BME280;6243;51.244;6.774;2023-05-20T08:09:37;151994.69;;;17.95;70.17
12358;BME280;6243;51.244;6.774;2023-05-20T08:12:04;152036.84;;;18.12;69.85
12358;BME280;6243;51.244;6.774;2023-05-20T08:14:30;152017.69;;;18.04;68.93
12358;BME280;6243;51.244;6.774;2023-05-20T08:16:55;152025.34;;;18.07;69.84
12358;BME280;6243;51.244;6.774;2023-05-20T08:19:21;151988.28;;;17.93;69.13
12358;BME280;6243;51.244;6.774;2023-05-20T08:21:47;152061.13;;;18.21;69.78
12358;BME280;6243;51.244;6.774;2023-05-20T08:24:12;151990.81;;;17.94;69.32
12358;BME280;6243;51.244;6.774;2023-05-20T08:26:38;152040.72;;;18.13;70.04
12358;BME280;6243;51.244;6.774;2023-05-20T08:29:04;152035.59;;;18.11;70.73
12358;BME280;6243;51.244;6.774;2023-05-20T08:31:30;151984.41;;;17.91;70.35
12358;BME280;6243;51.244;6.774;2023-05-20T08:33:55;151983.19;;;17.91;70.23
12358;BME280;6243;51.244;6.774;2023-05-20T08:36:22;152011.28;;;18.02;70.73
12358;BME280;6243;51.244;6.774;2023-05-20T08:38:48;151988.28;;;17.93;71.65
12358;BME280;6243;51.244;6.774;2023-05-20T08:41:14;152004.91;;;17.99;71.83
12358;BME280;6243;51.244;6.774;2023-05-20T08:43:40;152073.94;;;18.26;71.75
12358;BME280;6243;51.244;6.774;2023-05-20T08:46:08;152123.84;;;18.46;71.14
12358;BME280;6243;51.244;6.774;2023-05-20T08:48:34;152164.78;;;18.62;70.97
12358;BME280;6243;51.244;6.774;2023-05-20T08:51:01;152233.84;;;18.89;70.80
12358;BME280;6243;51.244;6.774;2023-05-20T08:53:27;152249.25;;;18.95;69.84
12358;BME280;6243;51.244;6.774;2023-05-20T08:55:54;152221.09;;;18.84;68.48
12358;BME280;6243;51.244;6.774;2023-05-20T08:58:21;152305.53;;;19.18;69.87
12358;BME280;6243;51.244;6.774;2023-05-20T09:00:46;152346.50;;;19.34;68.42
12358;BME280;6243;51.244;6.774;2023-05-20T09:03:13;152306.81;;;19.18;67.38
12358;BME280;6243;51.244;6.774;2023-05-20T09:05:39;152345.19;;;19.33;68.03
12358;BME280;6243;51.244;6.774;2023-05-20T09:08:05;152390.03;;;19.51;67.92
12358;BME280;6243;51.244;6.774;2023-05-20T09:10:31;152387.50;;;19.50;66.71
12358;BME280;6243;51.244;6.774;2023-05-20T09:12:56;152341.38;;;19.32;67.84
12358;BME280;6243;51.244;6.774;2023-05-20T09:15:22;152355.47;;;19.37;68.20
12358;BME280;6243;51.244;6.774;2023-05-20T09:17:48;152391.31;;;19.51;66.69
12358;BME280;6243;51.244;6.774;2023-05-20T09:20:15;152431.00;;;19.67;66.18
12358;BME280;6243;51.244;6.774;2023-05-20T09:22:41;152502.72;;;19.95;65.55
12358;BME280;6243;51.244;6.774;2023-05-20T09:25:07;152533.47;;;20.07;64.68
12358;BME280;6243;51.244;6.774;2023-05-20T09:27:33;152587.31;;;20.28;65.02
12358;BME280;6243;51.244;6.774;2023-05-20T09:29:58;152593.66;;;20.31;63.82
12358;BME280;6243;51.244;6.774;2023-05-20T09:32:24;152564.16;;;20.19;65.10
12358;BME280;6243;51.244;6.774;2023-05-20T09:34:49;152632.13;;;20.46;64.18
12358;BME280;6243;51.244;6.774;2023-05-20T09:37:20;152711.53;;;20.77;63.51
12358;BME280;6243;51.244;6.774;2023-05-20T09:39:53;152632.13;;;20.46;64.43
12358;BME280;6243;51.244;6.774;2023-05-20T09:42:21;152625.72;;;20.43;64.18
12358;BME280;6243;51.244;6.774;2023-05-20T09:44:49;152674.41;;;20.63;64.17
12358;BME280;6243;51.244;6.774;2023-05-20T09:47:15;152771.78;;;21.01;64.00
12358;BME280;6243;51.244;6.774;2023-05-20T09:49:42;152719.25;;;20.80;62.92
12358;BME280;6243;51.244;6.774;2023-05-20T09:52:09;152680.78;;;20.65;63.89
12358;BME280;6243;51.244;6.774;2023-05-20T09:54:38;152702.59;;;20.74;62.14
12358;BME280;6243;51.244;6.774;2023-05-20T09:57:04;152620.59;;;20.41;63.42
12358;BME280;6243;51.244;6.774;2023-05-20T09:59:32;152564.16;;;20.19;63.62
12358;BME280;6243;51.244;6.774;2023-05-20T10:01:59;152579.59;;;20.25;63.28
12358;BME280;6243;51.244;6.774;2023-05-20T10:04:26;152507.81;;;19.97;63.41
12358;BME280;6243;51.244;6.774;2023-05-20T10:07:08;152646.19;;;20.51;64.67
12358;BME280;6243;51.244;6.774;2023-05-20T10:09:48;152646.19;;;20.51;63.14
12358;BME280;6243;51.244;6.774;2023-05-20T10:12:24;152710.25;;;20.77;63.23
12358;BME280;6243;51.244;6.774;2023-05-20T10:15:02;152560.34;;;20.18;62.66
12358;BME280;6243;51.244;6.774;2023-05-20T10:17:36;152623.13;;;20.42;63.63
12358;BME280;6243;51.244;6.774;2023-05-20T10:20:05;152630.84;;;20.45;63.12
12358;BME280;6243;51.244;6.774;2023-05-20T10:22:31;152656.47;;;20.56;64.28
12358;BME280;6243;51.244;6.774;2023-05-20T10:24:59;152651.31;;;20.53;62.55
12358;BME280;6243;51.244;6.774;2023-05-20T10:27:25;152712.81;;;20.78;63.33
12358;BME280;6243;51.244;6.774;2023-05-20T10:29:51;152687.19;;;20.68;62.61
12358;BME280;6243;51.244;6.774;2023-05-20T10:32:24;152632.13;;;20.46;62.94
12358;BME280;6243;51.244;6.774;2023-05-20T10:34:50;152629.53;;;20.45;63.21
12358;BME280;6243;51.244;6.774;2023-05-20T10:37:28;152571.91;;;20.22;62.64
12358;BME280;6243;51.244;6.774;2023-05-20T10:40:09;152544.97;;;20.12;63.33
12358;BME280;6243;51.244;6.774;2023-05-20T10:42:35;152542.41;;;20.11;64.75
12358;BME280;6243;51.244;6.774;2023-05-20T10:45:02;152511.69;;;19.99;63.82
12358;BME280;6243;51.244;6.774;2023-05-20T10:47:28;152560.34;;;20.18;64.21
12358;BME280;6243;51.244;6.774;2023-05-20T10:49:53;152492.47;;;19.91;64.80
12358;BME280;6243;51.244;6.774;2023-05-20T10:52:19;152475.84;;;19.85;64.83
12358;BME280;6243;51.244;6.774;2023-05-20T10:54:45;152465.56;;;19.80;64.79
12358;BME280;6243;51.244;6.774;2023-05-20T10:57:12;152477.09;;;19.85;65.80
12358;BME280;6243;51.244;6.774;2023-05-20T10:59:39;152520.63;;;20.02;66.52
12358;BME280;6243;51.244;6.774;2023-05-20T11:02:05;152452.78;;;19.75;65.30
12358;BME280;6243;51.244;6.774;2023-05-20T11:04:32;152440.00;;;19.70;66.08
12358;BME280;6243;51.244;6.774;2023-05-20T11:06:57;152400.31;;;19.55;67.28
12358;BME280;6243;51.244;6.774;2023-05-20T11:09:23;152445.09;;;19.72;65.65
12358;BME280;6243;51.244;6.774;2023-05-20T11:11:49;152397.72;;;19.54;66.18
12358;BME280;6243;51.244;6.774;2023-05-20T11:14:16;152465.56;;;19.80;67.41
12358;BME280;6243;51.244;6.774;2023-05-20T11:16:42;152493.78;;;19.92;67.07
12358;BME280;6243;51.244;6.774;2023-05-20T11:19:07;152381.09;;;19.47;66.48
12358;BME280;6243;51.244;6.774;2023-05-20T11:21:33;152437.41;;;19.69;67.39
12358;BME280;6243;51.244;6.774;2023-05-20T11:23:58;152446.41;;;19.73;67.72
12358;BME280;6243;51.244;6.774;2023-05-20T11:26:24;152429.75;;;19.66;66.82
12358;BME280;6243;51.244;6.774;2023-05-20T11:28:49;152447.69;;;19.73;67.88
12358;BME280;6243;51.244;6.774;2023-05-20T11:31:17;152427.19;;;19.65;66.49
12358;BME280;6243;51.244;6.774;2023-05-20T11:33:43;152455.34;;;19.76;67.45
12358;BME280;6243;51.244;6.774;2023-05-20T11:36:09;152406.72;;;19.57;68.33
12358;BME280;6243;51.244;6.774;2023-05-20T11:38:34;152402.84;;;19.56;70.21
12358;BME280;6243;51.244;6.774;2023-05-20T11:41:00;152484.78;;;19.88;68.75
12358;BME280;6243;51.244;6.774;2023-05-20T11:43:25;152574.50;;;20.23;67.37
12358;BME280;6243;51.244;6.774;2023-05-20T11:45:54;152562.91;;;20.19;67.00
12358;BME280;6243;51.244;6.774;2023-05-20T11:48:22;152602.66;;;20.34;68.99
12358;BME280;6243;51.244;6.774;2023-05-20T11:50:48;152556.50;;;20.16;66.08
12358;BME280;6243;51.244;6.774;2023-05-20T11:53:15;152580.91;;;20.26;66.75
12358;BME280;6243;51.244;6.774;2023-05-20T11:55:45;152596.25;;;20.32;65.79
12358;BME280;6243;51.244;6.774;2023-05-20T11:58:10;152619.31;;;20.41;66.66
12358;BME280;6243;51.244;6.774;2023-05-20T12:00:36;152646.19;;;20.51;66.99
12358;BME280;6243;51.244;6.774;2023-05-20T12:03:01;152630.84;;;20.45;67.32
12358;BME280;6243;51.244;6.774;2023-05-20T12:05:28;152607.78;;;20.36;66.32
12358;BME280;6243;51.244;6.774;2023-05-20T12:07:54;152591.13;;;20.30;66.53
12358;BME280;6243;51.244;6.774;2023-05-20T12:10:19;152700.00;;;20.73;66.93
12358;BME280;6243;51.244;6.774;2023-05-20T12:12:45;152734.59;;;20.86;67.04
12358;BME280;6243;51.244;6.774;2023-05-20T12:15:11;152793.59;;;21.09;66.23
12358;BME280;6243;51.244;6.774;2023-05-20T12:17:44;152838.44;;;21.27;65.35
12358;BME280;6243;51.244;6.774;2023-05-20T12:20:12;152811.53;;;21.16;64.52
12358;BME280;6243;51.244;6.774;2023-05-20T12:22:38;152856.38;;;21.34;64.24
12358;BME280;6243;51.244;6.774;2023-05-20T12:25:05;152839.72;;;21.28;64.73
12358;BME280;6243;51.244;6.774;2023-05-20T12:27:30;152876.94;;;21.42;64.75
12358;BME280;6243;51.244;6.774;2023-05-20T12:29:56;152929.50;;;21.63;65.10
12358;BME280;6243;51.244;6.774;2023-05-20T12:32:21;152928.19;;;21.62;63.60
12358;BME280;6243;51.244;6.774;2023-05-20T12:34:47;152964.09;;;21.76;65.21
12358;BME280;6243;51.244;6.774;2023-05-20T12:37:12;152889.69;;;21.47;63.42
12358;BME280;6243;51.244;6.774;2023-05-20T12:39:39;152893.59;;;21.49;64.38
12358;BME280;6243;51.244;6.774;2023-05-20T12:42:04;152884.59;;;21.45;63.50
12358;BME280;6243;51.244;6.774;2023-05-20T12:44:30;152820.50;;;21.20;64.65
12358;BME280;6243;51.244;6.774;2023-05-20T12:46:56;152794.88;;;21.10;64.02
12358;BME280;6243;51.244;6.774;2023-05-20T12:49:21;152824.38;;;21.22;64.50
12358;BME280;6243;51.244;6.774;2023-05-20T12:51:47;152869.22;;;21.39;65.03
12358;BME280;6243;51.244;6.774;2023-05-20T12:54:12;152906.41;;;21.54;64.65